Flight Track Log - Related Links

Times and Time Zones

All times are in EDT time to prevent confusion due to time zone crossing. See the N850UA flight status page for this flight to view local times or setup timezone preferences in your user account.

Time Position Orientation Groundspeed Altitude Reporting Facility
EDT Latitude Longitude Course Direction KTS MPH feet Rate Location/Type
Fri 01:24:21 AM 32.7867 -117.3003 302° West 233 268 4,900  Level Los Angeles Center
Fri 01:25:22 AM 32.8275 -117.3742 303° West 268 308 9,200 3,756 Climbing Los Angeles Center
Fri 01:26:24 AM 32.8703 -117.4556 302° West 284 327 12,600 3,317 Climbing Los Angeles Center
Fri 01:27:25 AM 32.9597 -117.5400 322° Northwest 344 396 16,000 3,024 Climbing Los Angeles Center
Fri 01:28:27 AM 33.0392 -117.6081 324° Northwest 353 406 18,800 2,732 Climbing Los Angeles Center
Fri 01:29:28 AM 33.0997 -117.7108 305° West 369 425 21,600 2,439 Climbing Los Angeles Center
Fri 01:30:30 AM 33.1683 -117.8083 310° West 379 436 23,800 2,049 Climbing Los Angeles Center
Fri 01:31:31 AM 33.2406 -117.9081 311° West 391 450 25,800 1,951 Climbing Los Angeles Center
Fri 01:32:33 AM 33.3133 -118.0128 310° West 403 464 27,800 1,805 Climbing Los Angeles Center
Fri 01:33:34 AM 33.3875 -118.1194 310° West 412 474 29,500 1,869 Climbing Los Angeles Center
Fri 01:34:35 AM 33.4628 -118.2283 310° West 419 482 31,600 1,902 Climbing Los Angeles Center
Fri 01:35:37 AM 33.5361 -118.3344 310° West 414 476 33,400 1,756 Climbing Los Angeles Center
Fri 01:36:38 AM 33.6086 -118.4425 309° West 410 472 35,200 1,756 Climbing Los Angeles Center
Fri 01:37:40 AM 33.6828 -118.5492 310° West 407 468 37,000 1,317 Climbing Los Angeles Center
Fri 01:38:41 AM 33.7539 -118.6533 309° West 400 460 37,900 443 Climbing Los Angeles Center
Fri 01:39:42 AM 33.8394 -118.7781 310° West 401 461 37,900  Level Los Angeles Center
Fri 01:40:43 AM 33.9103 -118.8811 310° West 400 460 37,900  Level Los Angeles Center
Fri 01:41:45 AM 33.9800 -118.9853 309° West 399 459 37,900  Level Los Angeles Center
Fri 01:42:46 AM 34.0506 -119.0889 309° West 400 460 37,900  Level Los Angeles Center
Fri 01:43:47 AM 34.1197 -119.1911 309° West 394 453 37,900  Level Los Angeles Center
Fri 01:44:48 AM 34.1883 -119.2939 309° West 393 452 37,900  Level Los Angeles Center
Fri 01:45:49 AM 34.2583 -119.3969 309° West 396 456 37,900 49 Level Los Angeles Center
Fri 01:46:51 AM 34.3269 -119.5003 309° West 396 456 38,000 49 Climbing Los Angeles Center
Fri 01:47:52 AM 34.3958 -119.6033 309° West 396 456 38,000 -49 Level Los Angeles Center
Fri 01:48:53 AM 34.4642 -119.7058 309° West 392 451 37,900 -49 Descending Los Angeles Center
Fri 01:49:54 AM 34.5519 -119.8222 312° West 390 449 37,900  Level Los Angeles Center
Fri 01:50:55 AM 34.6267 -119.8978 320° Northwest 398 458 37,900 49 Level Los Angeles Center
Fri 01:51:56 AM 34.7097 -119.9892 318° Northwest 401 461 38,000 49 Climbing Los Angeles Center
Fri 01:52:58 AM 34.7928 -120.0786 319° Northwest 400 460 38,000 -49 Level Los Angeles Center
Fri 01:53:59 AM 34.8869 -120.1825 318° Northwest 402 463 37,900 -49 Descending Los Angeles Center
Fri 01:55:00 AM 34.9681 -120.2728 318° Northwest 400 460 37,900  Level Los Angeles Center
Fri 01:56:01 AM 35.0511 -120.3642 318° Northwest 403 464 37,900  Level Los Angeles Center
Fri 01:57:02 AM 35.1347 -120.4564 318° Northwest 406 467 37,900 49 Level Los Angeles Center
Fri 01:58:03 AM 35.2203 -120.5514 318° Northwest 411 473 38,000  Climbing Los Angeles Center
Fri 01:59:05 AM 35.3025 -120.6442 317° Northwest 414 476 37,900 -49 Descending Los Angeles Center
Fri 02:00:06 AM 35.4114 -120.7458 323° Northwest 413 475 37,900  Level Los Angeles Center
Fri 02:00:21 AM 35.4250 -120.7594 321° Northwest 413 475 37,900  Level Oakland Center
Fri 02:01:21 AM 35.5178 -120.8414 324° Northwest 409 471 37,900  Level Oakland Center
Fri 02:02:22 AM 35.6103 -120.9250 324° Northwest 408 470 37,900  Level Oakland Center
Fri 02:03:23 AM 35.7019 -121.0094 323° Northwest 409 471 37,900  Level Oakland Center
Fri 02:04:23 AM 35.7950 -121.0917 324° Northwest 408 470 37,900  Level Oakland Center
Fri 02:05:24 AM 35.8861 -121.1742 324° Northwest 405 466 37,900 -50 Level Oakland Center
Fri 02:06:24 AM 35.9772 -121.2567 324° Northwest 405 466 37,800 -496 Descending Oakland Center
Fri 02:07:25 AM 36.0681 -121.3406 323° Northwest 406 467 36,900 -934 Descending Oakland Center
Fri 02:08:26 AM 36.1581 -121.4211 324° Northwest 398 458 35,900 -992 Descending Oakland Center
Fri 02:09:26 AM 36.2494 -121.5061 323° Northwest 411 473 34,900 -992 Descending Oakland Center
Fri 02:10:27 AM 36.3400 -121.5919 323° Northwest 406 467 33,900 -1,980 Descending Oakland Center
Fri 02:11:06 AM 36.4167 -121.6667 322° Northwest 415 478 31,600 -3,484 Descending Northern Cal TRACON
Fri 02:12:00 AM 36.5000 -121.7500 321° Northwest 421 484 28,500 -3,389 Descending Northern Cal TRACON
Fri 02:12:54 AM 36.5833 -121.8167 327° Northwest 453 521 25,500 -3,300 Descending Northern Cal TRACON
Fri 02:14:00 AM 36.6833 -121.9167 321° Northwest 473 544 21,900 -3,273 Descending Northern Cal TRACON
Fri 02:15:06 AM 36.8000 -121.9833 335° Northwest 402 463 18,300 -3,100 Descending Northern Cal TRACON
Fri 02:16:00 AM 36.9000 -122.0000 352° North 385 443 15,700 -2,682 Descending Northern Cal TRACON
Fri 02:16:31 AM 36.9331 -122.0136 342° North 388 447 14,500 -2,637 Descending Oakland Center
Fri 02:17:31 AM 37.0350 -122.0389 349° North 375 432 11,700 -1,934 Descending Oakland Center
Fri 02:18:32 AM 37.1253 -122.0628 348° North 332 382 10,600 -893 Descending Oakland Center
Fri 02:19:32 AM 37.2047 -122.0828 349° North 294 338 9,900 -1,190 Descending Oakland Center
Fri 02:20:33 AM 37.2792 -122.1028 348° North 276 318 8,200 -1,983 Descending Oakland Center
Fri 02:21:33 AM 37.3519 -122.1231 348° North 270 311 5,900 -1,636 Descending Oakland Center
Fri 02:22:34 AM 37.4333 -122.1433 349° North 253 291 4,900 -694 Descending Oakland Center
Fri 02:23:34 AM 37.4886 -122.1619 345° North 217 250 4,500 -893 Descending Oakland Center
Fri 02:24:35 AM 37.5411 -122.1839 342° North 205 236 3,100 -1,082 Descending Oakland Center
Fri 02:25:36 AM 37.5714 -122.2361 306° West 195 224 2,300 -836 Descending Oakland Center
Fri 02:26:37 AM 37.5836 -122.2886 286° West 175 201 1,400 -893 Descending Oakland Center
Fri 02:27:37 AM 37.5981 -122.3281 295° West 148 170 500 -600 Descending Oakland Center
Fri 02:28:37 AM 37.6131 -122.3614 300° West 137 158 200 -300 Descending Oakland Center

Login

Don't have an account? Register now (free) for customized features, flight alerts, and more!